sensor_id;sensor_type;location;lat;lon;timestamp;P1;durP1;ratioP1;P2;durP2;ratioP2
64669;SDS011;51080;51.690;5.174;2022-09-25T00:05:09;11.50;;;4.10;;
64669;SDS011;51080;51.690;5.174;2022-09-25T00:10:53;12.50;;;3.80;;
64669;SDS011;51080;51.690;5.174;2022-09-25T00:16:37;13.20;;;3.80;;
64669;SDS011;51080;51.690;5.174;2022-09-25T00:22:22;20.00;;;4.70;;
64669;SDS011;51080;51.690;5.174;2022-09-25T00:28:07;13.40;;;4.80;;
64669;SDS011;51080;51.690;5.174;2022-09-25T00:33:52;10.60;;;4.90;;
64669;SDS011;51080;51.690;5.174;2022-09-25T00:40:07;17.60;;;5.60;;
64669;SDS011;51080;51.690;5.174;2022-09-25T00:45:53;14.40;;;5.80;;
64669;SDS011;51080;51.690;5.174;2022-09-25T00:51:47;16.10;;;5.90;;
64669;SDS011;51080;51.690;5.174;2022-09-25T00:57:38;20.30;;;6.50;;
64669;SDS011;51080;51.690;5.174;2022-09-25T01:03:26;14.50;;;5.70;;
64669;SDS011;51080;51.690;5.174;2022-09-25T01:09:11;19.80;;;7.10;;
64669;SDS011;51080;51.690;5.174;2022-09-25T01:14:55;17.70;;;6.50;;
64669;SDS011;51080;51.690;5.174;2022-09-25T01:27:05;21.30;;;7.90;;
64669;SDS011;51080;51.690;5.174;2022-09-25T01:33:09;21.00;;;8.50;;
64669;SDS011;51080;51.690;5.174;2022-09-25T01:45:08;18.30;;;8.10;;
64669;SDS011;51080;51.690;5.174;2022-09-25T01:51:01;20.70;;;8.10;;
64669;SDS011;51080;51.690;5.174;2022-09-25T01:56:58;18.30;;;7.80;;
64669;SDS011;51080;51.690;5.174;2022-09-25T02:02:56;21.10;;;8.70;;
64669;SDS011;51080;51.690;5.174;2022-09-25T02:08:52;21.80;;;7.90;;
64669;SDS011;51080;51.690;5.174;2022-09-25T02:14:48;19.70;;;7.70;;
64669;SDS011;51080;51.690;5.174;2022-09-25T02:20:36;12.60;;;7.00;;
64669;SDS011;51080;51.690;5.174;2022-09-25T02:26:52;18.50;;;6.80;;
64669;SDS011;51080;51.690;5.174;2022-09-25T02:32:37;18.30;;;6.70;;
64669;SDS011;51080;51.690;5.174;2022-09-25T02:38:22;17.20;;;7.20;;
64669;SDS011;51080;51.690;5.174;2022-09-25T02:44:13;14.80;;;7.20;;
64669;SDS011;51080;51.690;5.174;2022-09-25T02:50:16;15.70;;;7.10;;
64669;SDS011;51080;51.690;5.174;2022-09-25T02:56:13;11.90;;;6.90;;
64669;SDS011;51080;51.690;5.174;2022-09-25T03:02:35;18.50;;;7.80;;
64669;SDS011;51080;51.690;5.174;2022-09-25T03:08:22;21.40;;;9.60;;
64669;SDS011;51080;51.690;5.174;2022-09-25T03:14:09;28.10;;;10.60;;
64669;SDS011;51080;51.690;5.174;2022-09-25T03:20:24;16.00;;;9.20;;
64669;SDS011;51080;51.690;5.174;2022-09-25T03:26:08;21.30;;;10.00;;
64669;SDS011;51080;51.690;5.174;2022-09-25T03:31:53;19.00;;;9.00;;
64669;SDS011;51080;51.690;5.174;2022-09-25T03:37:38;16.10;;;8.70;;
64669;SDS011;51080;51.690;5.174;2022-09-25T03:43:22;14.70;;;8.00;;
64669;SDS011;51080;51.690;5.174;2022-09-25T03:49:06;16.60;;;8.60;;
64669;SDS011;51080;51.690;5.174;2022-09-25T03:54:51;11.70;;;7.50;;
64669;SDS011;51080;51.690;5.174;2022-09-25T04:00:36;15.40;;;7.90;;
64669;SDS011;51080;51.690;5.174;2022-09-25T04:06:21;18.20;;;8.20;;
64669;SDS011;51080;51.690;5.174;2022-09-25T04:12:07;16.10;;;8.40;;
64669;SDS011;51080;51.690;5.174;2022-09-25T04:17:52;18.40;;;8.40;;
64669;SDS011;51080;51.690;5.174;2022-09-25T04:23:37;19.60;;;9.50;;
64669;SDS011;51080;51.690;5.174;2022-09-25T04:29:22;20.40;;;9.20;;
64669;SDS011;51080;51.690;5.174;2022-09-25T04:35:07;20.60;;;9.10;;
64669;SDS011;51080;51.690;5.174;2022-09-25T04:40:52;20.20;;;8.30;;
64669;SDS011;51080;51.690;5.174;2022-09-25T04:46:36;14.40;;;6.90;;
64669;SDS011;51080;51.690;5.174;2022-09-25T04:52:19;12.70;;;7.80;;
64669;SDS011;51080;51.690;5.174;2022-09-25T04:58:04;15.30;;;8.60;;
64669;SDS011;51080;51.690;5.174;2022-09-25T05:04:19;12.60;;;6.90;;
64669;SDS011;51080;51.690;5.174;2022-09-25T05:10:04;14.30;;;7.70;;
64669;SDS011;51080;51.690;5.174;2022-09-25T05:15:51;14.40;;;8.50;;
64669;SDS011;51080;51.690;5.174;2022-09-25T05:21:38;17.10;;;8.00;;
64669;SDS011;51080;51.690;5.174;2022-09-25T05:27:22;12.90;;;7.10;;
64669;SDS011;51080;51.690;5.174;2022-09-25T05:33:07;15.40;;;8.10;;
64669;SDS011;51080;51.690;5.174;2022-09-25T05:38:51;11.60;;;7.60;;
64669;SDS011;51080;51.690;5.174;2022-09-25T05:44:36;13.30;;;7.70;;
64669;SDS011;51080;51.690;5.174;2022-09-25T05:50:20;16.60;;;9.80;;
64669;SDS011;51080;51.690;5.174;2022-09-25T05:56:09;13.00;;;8.30;;
64669;SDS011;51080;51.690;5.174;2022-09-25T06:02:17;18.20;;;10.10;;
64669;SDS011;51080;51.690;5.174;2022-09-25T06:08:04;16.80;;;10.10;;
64669;SDS011;51080;51.690;5.174;2022-09-25T06:14:09;21.20;;;12.30;;
64669;SDS011;51080;51.690;5.174;2022-09-25T06:19:58;20.20;;;11.00;;
64669;SDS011;51080;51.690;5.174;2022-09-25T06:26:04;23.60;;;12.60;;
64669;SDS011;51080;51.690;5.174;2022-09-25T06:31:53;28.70;;;14.30;;
64669;SDS011;51080;51.690;5.174;2022-09-25T06:37:38;24.80;;;13.50;;
64669;SDS011;51080;51.690;5.174;2022-09-25T06:43:28;25.10;;;14.00;;
64669;SDS011;51080;51.690;5.174;2022-09-25T06:49:12;25.40;;;13.60;;
64669;SDS011;51080;51.690;5.174;2022-09-25T06:54:58;25.30;;;14.50;;
64669;SDS011;51080;51.690;5.174;2022-09-25T07:00:54;30.70;;;15.00;;
64669;SDS011;51080;51.690;5.174;2022-09-25T07:07:01;27.20;;;14.30;;
64669;SDS011;51080;51.690;5.174;2022-09-25T07:12:48;29.80;;;14.90;;
64669;SDS011;51080;51.690;5.174;2022-09-25T07:18:36;30.20;;;14.70;;
64669;SDS011;51080;51.690;5.174;2022-09-25T07:24:20;27.00;;;14.60;;
64669;SDS011;51080;51.690;5.174;2022-09-25T07:30:04;29.20;;;14.80;;
64669;SDS011;51080;51.690;5.174;2022-09-25T07:35:50;32.00;;;17.10;;
64669;SDS011;51080;51.690;5.174;2022-09-25T07:41:34;40.60;;;20.80;;
64669;SDS011;51080;51.690;5.174;2022-09-25T07:47:48;43.80;;;20.80;;
64669;SDS011;51080;51.690;5.174;2022-09-25T07:53:32;46.00;;;23.40;;
64669;SDS011;51080;51.690;5.174;2022-09-25T07:59:17;39.10;;;21.30;;
64669;SDS011;51080;51.690;5.174;2022-09-25T08:05:01;26.80;;;17.00;;
64669;SDS011;51080;51.690;5.174;2022-09-25T08:10:46;26.80;;;13.80;;
64669;SDS011;51080;51.690;5.174;2022-09-25T08:16:31;24.10;;;13.10;;
64669;SDS011;51080;51.690;5.174;2022-09-25T08:22:15;22.60;;;11.30;;
64669;SDS011;51080;51.690;5.174;2022-09-25T08:27:59;26.90;;;12.20;;
64669;SDS011;51080;51.690;5.174;2022-09-25T08:33:46;27.60;;;13.00;;
64669;SDS011;51080;51.690;5.174;2022-09-25T08:40:01;27.50;;;12.70;;
64669;SDS011;51080;51.690;5.174;2022-09-25T08:45:48;17.10;;;7.90;;
64669;SDS011;51080;51.690;5.174;2022-09-25T08:51:38;11.80;;;5.30;;
64669;SDS011;51080;51.690;5.174;2022-09-25T08:57:34;10.50;;;4.20;;
64669;SDS011;51080;51.690;5.174;2022-09-25T09:03:21;9.00;;;3.50;;
64669;SDS011;51080;51.690;5.174;2022-09-25T09:09:11;10.30;;;3.50;;
64669;SDS011;51080;51.690;5.174;2022-09-25T09:15:05;7.20;;;2.80;;
64669;SDS011;51080;51.690;5.174;2022-09-25T09:33:26;7.30;;;2.00;;
64669;SDS011;51080;51.690;5.174;2022-09-25T09:39:35;5.30;;;1.80;;
64669;SDS011;51080;51.690;5.174;2022-09-25T09:45:45;7.30;;;1.50;;
64669;SDS011;51080;51.690;5.174;2022-09-25T09:51:47;4.90;;;1.40;;
64669;SDS011;51080;51.690;5.174;2022-09-25T09:57:42;4.90;;;1.30;;
64669;SDS011;51080;51.690;5.174;2022-09-25T10:03:32;4.30;;;1.20;;
64669;SDS011;51080;51.690;5.174;2022-09-25T10:09:21;6.10;;;1.10;;
64669;SDS011;51080;51.690;5.174;2022-09-25T10:15:06;4.60;;;1.20;;
64669;SDS011;51080;51.690;5.174;2022-09-25T10:21:04;5.90;;;1.40;;
64669;SDS011;51080;51.690;5.174;2022-09-25T10:33:14;6.60;;;1.30;;
64669;SDS011;51080;51.690;5.174;2022-09-25T10:51:17;3.00;;;1.00;;
64669;SDS011;51080;51.690;5.174;2022-09-25T11:03:32;7.10;;;1.20;;
64669;SDS011;51080;51.690;5.174;2022-09-25T11:09:21;3.70;;;1.00;;
64669;SDS011;51080;51.690;5.174;2022-09-25T11:15:11;4.90;;;1.30;;
64669;SDS011;51080;51.690;5.174;2022-09-25T11:21:04;4.40;;;1.10;;
64669;SDS011;51080;51.690;5.174;2022-09-25T11:33:01;4.20;;;1.10;;
64669;SDS011;51080;51.690;5.174;2022-09-25T11:38:54;2.80;;;0.90;;
64669;SDS011;51080;51.690;5.174;2022-09-25T11:44:57;3.70;;;1.10;;
64669;SDS011;51080;51.690;5.174;2022-09-25T11:51:26;3.40;;;1.00;;
64669;SDS011;51080;51.690;5.174;2022-09-25T12:09:45;5.20;;;1.20;;
64669;SDS011;51080;51.690;5.174;2022-09-25T12:40:28;4.30;;;0.90;;
64669;SDS011;51080;51.690;5.174;2022-09-25T12:46:25;4.00;;;1.00;;
64669;SDS011;51080;51.690;5.174;2022-09-25T12:52:21;3.30;;;0.90;;
64669;SDS011;51080;51.690;5.174;2022-09-25T12:58:21;4.20;;;0.80;;
64669;SDS011;51080;51.690;5.174;2022-09-25T13:04:22;3.40;;;0.70;;
64669;SDS011;51080;51.690;5.174;2022-09-25T13:16:32;2.50;;;0.70;;
64669;SDS011;51080;51.690;5.174;2022-09-25T13:22:20;3.00;;;0.90;;
64669;SDS011;51080;51.690;5.174;2022-09-25T13:28:08;3.70;;;1.00;;
64669;SDS011;51080;51.690;5.174;2022-09-25T13:34:02;2.90;;;0.80;;
64669;SDS011;51080;51.690;5.174;2022-09-25T13:39:49;1.60;;;0.60;;
64669;SDS011;51080;51.690;5.174;2022-09-25T13:45:34;3.80;;;1.10;;
64669;SDS011;51080;51.690;5.174;2022-09-25T13:57:15;4.10;;;1.10;;
64669;SDS011;51080;51.690;5.174;2022-09-25T14:02:59;2.70;;;0.70;;
64669;SDS011;51080;51.690;5.174;2022-09-25T14:08:44;2.50;;;0.70;;
64669;SDS011;51080;51.690;5.174;2022-09-25T14:14:46;3.90;;;1.00;;
64669;SDS011;51080;51.690;5.174;2022-09-25T14:20:38;4.40;;;0.90;;
64669;SDS011;51080;51.690;5.174;2022-09-25T14:26:29;3.40;;;1.00;;
64669;SDS011;51080;51.690;5.174;2022-09-25T14:32:35;5.00;;;1.10;;
64669;SDS011;51080;51.690;5.174;2022-09-25T14:50:57;2.40;;;0.90;;
64669;SDS011;51080;51.690;5.174;2022-09-25T14:56:47;2.30;;;1.00;;
64669;SDS011;51080;51.690;5.174;2022-09-25T15:02:40;3.50;;;1.00;;
64669;SDS011;51080;51.690;5.174;2022-09-25T15:08:34;4.30;;;1.00;;
64669;SDS011;51080;51.690;5.174;2022-09-25T15:14:25;4.10;;;1.00;;
64669;SDS011;51080;51.690;5.174;2022-09-25T15:20:14;2.30;;;0.80;;
64669;SDS011;51080;51.690;5.174;2022-09-25T15:26:05;2.60;;;1.00;;
64669;SDS011;51080;51.690;5.174;2022-09-25T15:31:58;2.30;;;0.80;;
64669;SDS011;51080;51.690;5.174;2022-09-25T15:37:49;1.80;;;0.70;;
64669;SDS011;51080;51.690;5.174;2022-09-25T15:43:49;1.80;;;0.60;;
64669;SDS011;51080;51.690;5.174;2022-09-25T15:49:37;1.80;;;0.70;;
64669;SDS011;51080;51.690;5.174;2022-09-25T15:55:28;3.40;;;0.60;;
64669;SDS011;51080;51.690;5.174;2022-09-25T16:01:21;1.40;;;0.50;;
64669;SDS011;51080;51.690;5.174;2022-09-25T16:13:20;1.70;;;0.50;;
64669;SDS011;51080;51.690;5.174;2022-09-25T16:19:18;0.90;;;0.60;;
64669;SDS011;51080;51.690;5.174;2022-09-25T16:25:18;2.50;;;0.50;;
64669;SDS011;51080;51.690;5.174;2022-09-25T16:31:36;2.20;;;0.70;;
64669;SDS011;51080;51.690;5.174;2022-09-25T16:37:25;2.10;;;0.70;;
64669;SDS011;51080;51.690;5.174;2022-09-25T16:49:07;2.50;;;0.70;;
64669;SDS011;51080;51.690;5.174;2022-09-25T16:54:54;2.30;;;0.70;;
64669;SDS011;51080;51.690;5.174;2022-09-25T17:00:39;4.10;;;0.90;;
64669;SDS011;51080;51.690;5.174;2022-09-25T17:06:24;2.80;;;0.80;;
64669;SDS011;51080;51.690;5.174;2022-09-25T17:12:12;2.30;;;0.70;;
64669;SDS011;51080;51.690;5.174;2022-09-25T17:18:34;3.30;;;0.90;;
64669;SDS011;51080;51.690;5.174;2022-09-25T17:24:20;16.70;;;2.20;;
64669;SDS011;51080;51.690;5.174;2022-09-25T17:30:07;12.00;;;2.50;;
64669;SDS011;51080;51.690;5.174;2022-09-25T17:36:02;9.30;;;2.20;;
64669;SDS011;51080;51.690;5.174;2022-09-25T17:41:48;10.60;;;1.50;;
64669;SDS011;51080;51.690;5.174;2022-09-25T17:47:33;18.80;;;3.20;;
64669;SDS011;51080;51.690;5.174;2022-09-25T17:53:17;25.70;;;4.40;;
64669;SDS011;51080;51.690;5.174;2022-09-25T17:59:02;13.50;;;3.00;;
64669;SDS011;51080;51.690;5.174;2022-09-25T18:04:46;8.00;;;1.90;;
64669;SDS011;51080;51.690;5.174;2022-09-25T18:10:30;4.10;;;1.50;;
64669;SDS011;51080;51.690;5.174;2022-09-25T18:16:16;3.90;;;1.40;;
64669;SDS011;51080;51.690;5.174;2022-09-25T18:22:08;14.40;;;3.50;;
64669;SDS011;51080;51.690;5.174;2022-09-25T18:27:53;4.50;;;2.00;;
64669;SDS011;51080;51.690;5.174;2022-09-25T18:33:38;6.40;;;2.40;;
64669;SDS011;51080;51.690;5.174;2022-09-25T18:39:24;12.60;;;3.80;;
64669;SDS011;51080;51.690;5.174;2022-09-25T18:45:11;7.00;;;3.10;;
64669;SDS011;51080;51.690;5.174;2022-09-25T18:51:00;7.90;;;2.80;;
64669;SDS011;51080;51.690;5.174;2022-09-25T18:56:49;9.10;;;3.80;;
64669;SDS011;51080;51.690;5.174;2022-09-25T19:02:37;6.20;;;2.90;;
64669;SDS011;51080;51.690;5.174;2022-09-25T19:08:24;19.70;;;4.50;;
64669;SDS011;51080;51.690;5.174;2022-09-25T19:14:12;18.40;;;4.20;;
64669;SDS011;51080;51.690;5.174;2022-09-25T19:20:01;5.40;;;2.20;;
64669;SDS011;51080;51.690;5.174;2022-09-25T19:25:52;4.20;;;2.20;;
64669;SDS011;51080;51.690;5.174;2022-09-25T19:31:45;6.30;;;2.70;;
64669;SDS011;51080;51.690;5.174;2022-09-25T19:37:33;4.40;;;1.80;;
64669;SDS011;51080;51.690;5.174;2022-09-25T19:43:18;8.20;;;2.40;;
64669;SDS011;51080;51.690;5.174;2022-09-25T19:49:02;4.60;;;2.10;;
64669;SDS011;51080;51.690;5.174;2022-09-25T19:54:47;8.70;;;2.20;;
64669;SDS011;51080;51.690;5.174;2022-09-25T20:00:39;7.10;;;2.30;;
64669;SDS011;51080;51.690;5.174;2022-09-25T20:06:25;4.10;;;2.20;;
64669;SDS011;51080;51.690;5.174;2022-09-25T20:12:09;7.20;;;2.50;;
64669;SDS011;51080;51.690;5.174;2022-09-25T20:17:54;7.10;;;2.60;;
64669;SDS011;51080;51.690;5.174;2022-09-25T20:24:09;4.70;;;2.60;;
64669;SDS011;51080;51.690;5.174;2022-09-25T20:29:56;5.80;;;2.60;;
64669;SDS011;51080;51.690;5.174;2022-09-25T20:35:51;8.00;;;3.20;;
64669;SDS011;51080;51.690;5.174;2022-09-25T20:41:37;8.50;;;3.10;;
64669;SDS011;51080;51.690;5.174;2022-09-25T20:47:52;5.60;;;3.40;;
64669;SDS011;51080;51.690;5.174;2022-09-25T20:53:37;6.50;;;3.50;;
64669;SDS011;51080;51.690;5.174;2022-09-25T20:59:23;8.70;;;3.50;;
64669;SDS011;51080;51.690;5.174;2022-09-25T21:05:08;6.00;;;3.80;;
64669;SDS011;51080;51.690;5.174;2022-09-25T21:10:52;6.80;;;3.80;;
64669;SDS011;51080;51.690;5.174;2022-09-25T21:16:37;5.80;;;4.00;;
64669;SDS011;51080;51.690;5.174;2022-09-25T21:22:22;9.60;;;4.50;;
64669;SDS011;51080;51.690;5.174;2022-09-25T21:28:06;8.10;;;4.50;;
64669;SDS011;51080;51.690;5.174;2022-09-25T21:33:51;8.20;;;4.60;;
64669;SDS011;51080;51.690;5.174;2022-09-25T21:39:37;11.80;;;4.60;;
64669;SDS011;51080;51.690;5.174;2022-09-25T21:45:21;7.40;;;4.90;;
64669;SDS011;51080;51.690;5.174;2022-09-25T21:51:06;6.80;;;4.30;;
64669;SDS011;51080;51.690;5.174;2022-09-25T21:56:51;7.70;;;4.40;;
64669;SDS011;51080;51.690;5.174;2022-09-25T22:02:36;7.60;;;4.20;;
64669;SDS011;51080;51.690;5.174;2022-09-25T22:08:21;9.30;;;4.00;;
64669;SDS011;51080;51.690;5.174;2022-09-25T22:14:06;5.30;;;4.00;;
64669;SDS011;51080;51.690;5.174;2022-09-25T22:19:50;9.70;;;4.00;;
64669;SDS011;51080;51.690;5.174;2022-09-25T22:25:35;8.10;;;4.30;;
64669;SDS011;51080;51.690;5.174;2022-09-25T22:31:21;8.40;;;4.40;;
64669;SDS011;51080;51.690;5.174;2022-09-25T22:37:10;9.30;;;4.10;;
64669;SDS011;51080;51.690;5.174;2022-09-25T22:42:54;5.70;;;4.10;;
64669;SDS011;51080;51.690;5.174;2022-09-25T22:48:38;6.80;;;4.40;;
64669;SDS011;51080;51.690;5.174;2022-09-25T22:54:23;9.60;;;4.10;;
64669;SDS011;51080;51.690;5.174;2022-09-25T23:00:08;8.10;;;4.00;;
64669;SDS011;51080;51.690;5.174;2022-09-25T23:05:54;5.80;;;4.00;;
64669;SDS011;51080;51.690;5.174;2022-09-25T23:11:43;10.20;;;4.50;;
64669;SDS011;51080;51.690;5.174;2022-09-25T23:17:28;8.90;;;4.50;;
64669;SDS011;51080;51.690;5.174;2022-09-25T23:23:13;10.80;;;4.50;;
64669;SDS011;51080;51.690;5.174;2022-09-25T23:28:58;7.70;;;4.10;;
64669;SDS011;51080;51.690;5.174;2022-09-25T23:34:44;5.50;;;4.10;;
64669;SDS011;51080;51.690;5.174;2022-09-25T23:40:29;11.10;;;4.30;;
64669;SDS011;51080;51.690;5.174;2022-09-25T23:46:13;8.80;;;3.90;;
64669;SDS011;51080;51.690;5.174;2022-09-25T23:51:57;7.60;;;4.10;;
64669;SDS011;51080;51.690;5.174;2022-09-25T23:57:41;9.10;;;4.10;;
